sensor_id;sensor_type;location;lat;lon;timestamp;pressure;altitude;pressure_sealevel;temperature;humidity
19884;BME280;10104;50.732;10.174;2023-08-20T00:00:09;98308.00;;;24.73;88.95
19884;BME280;10104;50.732;10.174;2023-08-20T00:03:04;98313.38;;;24.57;90.38
19884;BME280;10104;50.732;10.174;2023-08-20T00:05:46;98310.91;;;24.46;90.46
19884;BME280;10104;50.732;10.174;2023-08-20T00:08:26;98322.28;;;24.38;90.90
19884;BME280;10104;50.732;10.174;2023-08-20T00:11:12;98320.38;;;24.38;90.48
19884;BME280;10104;50.732;10.174;2023-08-20T00:13:54;98312.53;;;24.37;90.24
19884;BME280;10104;50.732;10.174;2023-08-20T00:16:34;98305.22;;;24.37;90.20
19884;BME280;10104;50.732;10.174;2023-08-20T00:19:15;98310.91;;;24.31;91.41
19884;BME280;10104;50.732;10.174;2023-08-20T00:21:55;98312.78;;;24.25;91.52
19884;BME280;10104;50.732;10.174;2023-08-20T00:24:36;98314.94;;;24.23;91.21
19884;BME280;10104;50.732;10.174;2023-08-20T00:27:17;98317.91;;;24.27;90.80
19884;BME280;10104;50.732;10.174;2023-08-20T00:29:58;98314.94;;;24.28;90.61
19884;BME280;10104;50.732;10.174;2023-08-20T00:32:38;98322.25;;;24.33;90.77
19884;BME280;10104;50.732;10.174;2023-08-20T00:35:18;98320.38;;;24.33;90.88
19884;BME280;10104;50.732;10.174;2023-08-20T00:37:59;98319.47;;;24.12;93.04
19884;BME280;10104;50.732;10.174;2023-08-20T00:40:39;98318.09;;;24.10;92.26
19884;BME280;10104;50.732;10.174;2023-08-20T00:43:20;98327.25;;;24.04;92.81
19884;BME280;10104;50.732;10.174;2023-08-20T00:46:00;98327.28;;;24.09;92.16
19884;BME280;10104;50.732;10.174;2023-08-20T00:48:41;98326.09;;;23.90;93.83
19884;BME280;10104;50.732;10.174;2023-08-20T00:51:24;98332.41;;;24.00;92.57
19884;BME280;10104;50.732;10.174;2023-08-20T00:54:09;98324.06;;;24.07;91.75
19884;BME280;10104;50.732;10.174;2023-08-20T00:56:50;98329.41;;;24.02;91.66
19884;BME280;10104;50.732;10.174;2023-08-20T00:59:33;98327.25;;;24.04;91.01
19884;BME280;10104;50.732;10.174;2023-08-20T01:02:17;98332.41;;;24.00;90.70
19884;BME280;10104;50.732;10.174;2023-08-20T01:04:58;98322.91;;;23.98;90.68
19884;BME280;10104;50.732;10.174;2023-08-20T01:08:04;98316.19;;;24.05;90.46
19884;BME280;10104;50.732;10.174;2023-08-20T01:11:24;98321.03;;;24.03;90.56
19884;BME280;10104;50.732;10.174;2023-08-20T01:14:02;98320.78;;;24.05;90.98
19884;BME280;10104;50.732;10.174;2023-08-20T01:16:48;98313.19;;;24.02;90.84
19884;BME280;10104;50.732;10.174;2023-08-20T01:19:32;98306.94;;;23.96;91.01
19884;BME280;10104;50.732;10.174;2023-08-20T01:25:44;98325.03;;;23.86;90.79
19884;BME280;10104;50.732;10.174;2023-08-20T01:28:30;98320.94;;;23.83;90.76
19884;BME280;10104;50.732;10.174;2023-08-20T01:31:11;98319.72;;;23.59;91.89
19884;BME280;10104;50.732;10.174;2023-08-20T01:33:54;98320.56;;;23.64;90.94
19884;BME280;10104;50.732;10.174;2023-08-20T01:36:37;98320.50;;;23.54;90.79
19884;BME280;10104;50.732;10.174;2023-08-20T01:39:22;98338.50;;;23.38;91.53
19884;BME280;10104;50.732;10.174;2023-08-20T01:42:06;98323.81;;;23.29;91.62
19884;BME280;10104;50.732;10.174;2023-08-20T01:44:54;98330.09;;;23.35;91.25
19884;BME280;10104;50.732;10.174;2023-08-20T01:47:34;98337.69;;;23.38;90.77
19884;BME280;10104;50.732;10.174;2023-08-20T01:50:15;98343.63;;;23.40;90.57
19884;BME280;10104;50.732;10.174;2023-08-20T01:52:56;98348.78;;;23.42;90.72
19884;BME280;10104;50.732;10.174;2023-08-20T01:55:37;98350.63;;;23.36;90.27
19884;BME280;10104;50.732;10.174;2023-08-20T01:58:20;98352.25;;;23.32;90.43
19884;BME280;10104;50.732;10.174;2023-08-20T02:01:01;98351.16;;;23.33;90.19
19884;BME280;10104;50.732;10.174;2023-08-20T02:03:41;98345.50;;;23.39;90.12
19884;BME280;10104;50.732;10.174;2023-08-20T02:06:21;98352.03;;;23.38;90.45
19884;BME280;10104;50.732;10.174;2023-08-20T02:09:02;98344.97;;;23.37;90.80
19884;BME280;10104;50.732;10.174;2023-08-20T02:11:43;98356.31;;;23.39;91.52
19884;BME280;10104;50.732;10.174;2023-08-20T02:14:25;98356.72;;;23.21;94.09
19884;BME280;10104;50.732;10.174;2023-08-20T02:17:12;98362.06;;;23.11;93.04
19884;BME280;10104;50.732;10.174;2023-08-20T02:19:52;98362.34;;;23.15;92.41
19884;BME280;10104;50.732;10.174;2023-08-20T02:22:33;98361.28;;;23.16;92.09
19884;BME280;10104;50.732;10.174;2023-08-20T02:25:14;98359.63;;;23.15;92.23
19884;BME280;10104;50.732;10.174;2023-08-20T02:27:54;98362.31;;;23.10;92.64
19884;BME280;10104;50.732;10.174;2023-08-20T02:30:42;98354.75;;;23.12;92.04
19884;BME280;10104;50.732;10.174;2023-08-20T02:33:22;98357.97;;;23.09;92.18
19884;BME280;10104;50.732;10.174;2023-08-20T02:36:04;98348.78;;;23.10;92.05
19884;BME280;10104;50.732;10.174;2023-08-20T02:38:44;98355.44;;;22.97;93.92
19884;BME280;10104;50.732;10.174;2023-08-20T02:41:25;98357.28;;;22.91;93.51
19884;BME280;10104;50.732;10.174;2023-08-20T02:44:05;98348.72;;;22.99;92.61
19884;BME280;10104;50.732;10.174;2023-08-20T02:46:45;98342.00;;;23.02;92.27
19884;BME280;10104;50.732;10.174;2023-08-20T02:49:25;98333.31;;;23.00;92.24
19884;BME280;10104;50.732;10.174;2023-08-20T02:52:05;98340.25;;;22.91;93.23
19884;BME280;10104;50.732;10.174;2023-08-20T02:54:45;98342.66;;;22.87;92.86
19884;BME280;10104;50.732;10.174;2023-08-20T02:57:25;98335.63;;;22.86;92.73
19884;BME280;10104;50.732;10.174;2023-08-20T03:00:06;98339.41;;;22.85;92.28
19884;BME280;10104;50.732;10.174;2023-08-20T03:02:51;98351.59;;;22.66;94.20
19884;BME280;10104;50.732;10.174;2023-08-20T03:05:32;98353.78;;;22.69;93.90
19884;BME280;10104;50.732;10.174;2023-08-20T03:08:12;98347.66;;;22.74;93.42
19884;BME280;10104;50.732;10.174;2023-08-20T03:10:53;98342.56;;;22.77;93.12
19884;BME280;10104;50.732;10.174;2023-08-20T03:13:33;98343.94;;;22.80;92.93
19884;BME280;10104;50.732;10.174;2023-08-20T03:16:15;98342.75;;;22.71;96.30
19884;BME280;10104;50.732;10.174;2023-08-20T03:18:55;98348.50;;;22.52;98.09
19884;BME280;10104;50.732;10.174;2023-08-20T03:21:35;98351.94;;;22.48;97.18
19884;BME280;10104;50.732;10.174;2023-08-20T03:24:15;98350.09;;;22.53;96.36
19884;BME280;10104;50.732;10.174;2023-08-20T03:26:56;98348.03;;;22.60;95.53
19884;BME280;10104;50.732;10.174;2023-08-20T03:29:42;98345.03;;;22.57;95.28
19884;BME280;10104;50.732;10.174;2023-08-20T03:32:28;98343.41;;;22.56;95.06
19884;BME280;10104;50.732;10.174;2023-08-20T03:35:08;98343.19;;;22.63;95.07
19884;BME280;10104;50.732;10.174;2023-08-20T03:37:48;98343.19;;;22.63;95.00
19884;BME280;10104;50.732;10.174;2023-08-20T03:40:28;98343.88;;;22.53;96.06
19884;BME280;10104;50.732;10.174;2023-08-20T03:43:08;98351.84;;;22.38;97.53
19884;BME280;10104;50.732;10.174;2023-08-20T03:45:50;98347.63;;;22.25;97.47
19884;BME280;10104;50.732;10.174;2023-08-20T03:48:31;98346.19;;;22.39;95.99
19884;BME280;10104;50.732;10.174;2023-08-20T03:51:12;98351.69;;;22.49;94.77
19884;BME280;10104;50.732;10.174;2023-08-20T03:53:53;98346.81;;;22.46;94.29
19884;BME280;10104;50.732;10.174;2023-08-20T03:56:33;98348.75;;;22.51;93.81
19884;BME280;10104;50.732;10.174;2023-08-20T03:59:13;98348.38;;;22.42;93.95
19884;BME280;10104;50.732;10.174;2023-08-20T04:01:54;98348.88;;;22.39;93.58
19884;BME280;10104;50.732;10.174;2023-08-20T04:04:34;98354.28;;;22.17;94.69
19884;BME280;10104;50.732;10.174;2023-08-20T04:07:14;98355.72;;;22.25;93.75
19884;BME280;10104;50.732;10.174;2023-08-20T04:09:54;98350.09;;;22.27;93.21
19884;BME280;10104;50.732;10.174;2023-08-20T04:12:34;98355.59;;;22.37;92.62
19884;BME280;10104;50.732;10.174;2023-08-20T04:15:15;98348.63;;;22.41;92.28
19884;BME280;10104;50.732;10.174;2023-08-20T04:17:55;98350.78;;;22.39;92.26
19884;BME280;10104;50.732;10.174;2023-08-20T04:20:36;98348.47;;;22.26;92.82
19884;BME280;10104;50.732;10.174;2023-08-20T04:23:16;98354.53;;;22.16;93.52
19884;BME280;10104;50.732;10.174;2023-08-20T04:25:56;98346.53;;;22.21;92.61
19884;BME280;10104;50.732;10.174;2023-08-20T04:28:36;98352.09;;;22.14;92.98
19884;BME280;10104;50.732;10.174;2023-08-20T04:31:16;98366.03;;;22.06;93.10
19884;BME280;10104;50.732;10.174;2023-08-20T04:33:57;98358.56;;;22.13;92.67
19884;BME280;10104;50.732;10.174;2023-08-20T04:36:37;98362.63;;;22.16;92.24
19884;BME280;10104;50.732;10.174;2023-08-20T04:39:18;98364.84;;;22.19;92.11
19884;BME280;10104;50.732;10.174;2023-08-20T04:41:58;98375.94;;;22.23;91.86
19884;BME280;10104;50.732;10.174;2023-08-20T04:44:40;98381.06;;;22.24;91.88
19884;BME280;10104;50.732;10.174;2023-08-20T04:47:20;98376.31;;;22.31;91.50
19884;BME280;10104;50.732;10.174;2023-08-20T04:50:00;98369.34;;;22.35;91.64
19884;BME280;10104;50.732;10.174;2023-08-20T04:52:41;98364.81;;;22.41;91.40
19884;BME280;10104;50.732;10.174;2023-08-20T04:55:21;98362.88;;;22.36;91.91
19884;BME280;10104;50.732;10.174;2023-08-20T04:58:01;98360.03;;;22.48;91.42
19884;BME280;10104;50.732;10.174;2023-08-20T05:00:42;98361.19;;;22.52;91.76
19884;BME280;10104;50.732;10.174;2023-08-20T05:03:22;98356.22;;;22.44;92.24
19884;BME280;10104;50.732;10.174;2023-08-20T05:06:02;98364.38;;;22.49;91.45
19884;BME280;10104;50.732;10.174;2023-08-20T05:08:43;98364.69;;;22.52;91.28
19884;BME280;10104;50.732;10.174;2023-08-20T05:11:23;98358.53;;;22.57;90.74
19884;BME280;10104;50.732;10.174;2023-08-20T05:14:03;98375.16;;;22.49;91.51
19884;BME280;10104;50.732;10.174;2023-08-20T05:16:43;98377.06;;;22.48;91.44
19884;BME280;10104;50.732;10.174;2023-08-20T05:19:24;98380.63;;;22.54;90.88
19884;BME280;10104;50.732;10.174;2023-08-20T05:22:04;98385.53;;;22.57;91.06
19884;BME280;10104;50.732;10.174;2023-08-20T05:24:45;98383.44;;;22.64;90.86
19884;BME280;10104;50.732;10.174;2023-08-20T05:27:27;98380.31;;;22.72;90.57
19884;BME280;10104;50.732;10.174;2023-08-20T05:30:11;98383.88;;;22.78;90.31
19884;BME280;10104;50.732;10.174;2023-08-20T05:32:51;98390.97;;;22.84;90.47
19884;BME280;10104;50.732;10.174;2023-08-20T05:35:31;98388.88;;;22.91;90.44
19884;BME280;10104;50.732;10.174;2023-08-20T05:38:12;98388.66;;;22.97;90.44
19884;BME280;10104;50.732;10.174;2023-08-20T05:40:52;98399.81;;;23.01;90.97
19884;BME280;10104;50.732;10.174;2023-08-20T05:43:37;98403.38;;;23.07;91.67
19884;BME280;10104;50.732;10.174;2023-08-20T05:46:17;98409.66;;;23.17;91.54
19884;BME280;10104;50.732;10.174;2023-08-20T05:48:58;98413.03;;;23.29;91.45
19884;BME280;10104;50.732;10.174;2023-08-20T05:51:43;98405.53;;;23.36;91.27
19884;BME280;10104;50.732;10.174;2023-08-20T05:54:28;98406.66;;;23.46;90.95
19884;BME280;10104;50.732;10.174;2023-08-20T05:57:08;98402.66;;;23.48;91.11
19884;BME280;10104;50.732;10.174;2023-08-20T05:59:48;98402.47;;;23.60;91.25
19884;BME280;10104;50.732;10.174;2023-08-20T06:02:28;98396.59;;;23.68;91.08
19884;BME280;10104;50.732;10.174;2023-08-20T06:05:09;98402.56;;;23.70;91.70
19884;BME280;10104;50.732;10.174;2023-08-20T06:07:49;98401.25;;;23.77;91.37
19884;BME280;10104;50.732;10.174;2023-08-20T06:10:29;98396.75;;;23.93;90.52
19884;BME280;10104;50.732;10.174;2023-08-20T06:13:23;98400.59;;;24.02;90.10
19884;BME280;10104;50.732;10.174;2023-08-20T06:16:09;98409.28;;;24.04;90.02
19884;BME280;10104;50.732;10.174;2023-08-20T06:18:49;98406.34;;;24.16;89.65
19884;BME280;10104;50.732;10.174;2023-08-20T06:21:30;98405.06;;;24.24;89.31
19884;BME280;10104;50.732;10.174;2023-08-20T06:24:15;98408.91;;;24.33;89.32
19884;BME280;10104;50.732;10.174;2023-08-20T06:26:55;98412.19;;;24.40;89.65
19884;BME280;10104;50.732;10.174;2023-08-20T06:29:35;98412.72;;;24.42;91.13
19884;BME280;10104;50.732;10.174;2023-08-20T06:32:15;98424.19;;;24.69;89.96
19884;BME280;10104;50.732;10.174;2023-08-20T06:34:58;98421.88;;;24.93;89.78
19884;BME280;10104;50.732;10.174;2023-08-20T06:37:38;98422.19;;;25.22;89.67
19884;BME280;10104;50.732;10.174;2023-08-20T06:40:20;98433.03;;;25.37;89.11
19884;BME280;10104;50.732;10.174;2023-08-20T06:43:00;98436.59;;;25.43;89.51
19884;BME280;10104;50.732;10.174;2023-08-20T06:45:41;98440.41;;;25.62;88.51
19884;BME280;10104;50.732;10.174;2023-08-20T06:48:28;98444.47;;;25.69;87.81
19884;BME280;10104;50.732;10.174;2023-08-20T06:51:18;98445.28;;;25.80;87.32
19884;BME280;10104;50.732;10.174;2023-08-20T06:54:03;98451.53;;;25.91;86.49
19884;BME280;10104;50.732;10.174;2023-08-20T06:56:45;98459.66;;;25.75;87.07
19884;BME280;10104;50.732;10.174;2023-08-20T06:59:28;98460.75;;;25.80;87.28
19884;BME280;10104;50.732;10.174;2023-08-20T07:02:09;98466.44;;;25.83;87.75
19884;BME280;10104;50.732;10.174;2023-08-20T07:04:50;98465.09;;;25.86;88.30
19884;BME280;10104;50.732;10.174;2023-08-20T07:07:30;98465.63;;;25.77;88.13
19884;BME280;10104;50.732;10.174;2023-08-20T07:10:10;98464.00;;;25.82;88.79
19884;BME280;10104;50.732;10.174;2023-08-20T07:12:51;98468.09;;;25.79;88.76
19884;BME280;10104;50.732;10.174;2023-08-20T07:15:31;98468.63;;;25.66;89.36
19884;BME280;10104;50.732;10.174;2023-08-20T07:18:11;98469.41;;;25.56;89.78
19884;BME280;10104;50.732;10.174;2023-08-20T07:20:54;98471.84;;;25.48;89.69
19884;BME280;10104;50.732;10.174;2023-08-20T07:23:34;98470.47;;;25.40;90.07
19884;BME280;10104;50.732;10.174;2023-08-20T07:26:15;98466.69;;;25.36;90.43
19884;BME280;10104;50.732;10.174;2023-08-20T07:28:55;98463.63;;;25.12;92.24
19884;BME280;10104;50.732;10.174;2023-08-20T07:31:39;98477.16;;;24.92;93.52
19884;BME280;10104;50.732;10.174;2023-08-20T07:34:19;98467.97;;;25.03;93.11
19884;BME280;10104;50.732;10.174;2023-08-20T07:37:00;98472.63;;;25.18;93.00
19884;BME280;10104;50.732;10.174;2023-08-20T07:39:41;98481.31;;;25.35;93.68
19884;BME280;10104;50.732;10.174;2023-08-20T07:42:21;98466.41;;;25.48;92.07
19884;BME280;10104;50.732;10.174;2023-08-20T07:45:01;98471.28;;;25.46;91.73
19884;BME280;10104;50.732;10.174;2023-08-20T07:47:41;98471.81;;;25.27;92.28
19884;BME280;10104;50.732;10.174;2023-08-20T07:50:22;98476.72;;;25.41;92.24
19884;BME280;10104;50.732;10.174;2023-08-20T07:53:02;98479.16;;;25.52;91.20
19884;BME280;10104;50.732;10.174;2023-08-20T07:55:42;98482.13;;;25.35;92.11
19884;BME280;10104;50.732;10.174;2023-08-20T07:58:22;98474.56;;;25.48;91.13
19884;BME280;10104;50.732;10.174;2023-08-20T08:01:03;98471.59;;;25.74;90.77
19884;BME280;10104;50.732;10.174;2023-08-20T08:03:43;98470.78;;;26.09;88.62
19884;BME280;10104;50.732;10.174;2023-08-20T08:06:23;98479.94;;;26.44;85.27
19884;BME280;10104;50.732;10.174;2023-08-20T08:09:26;98465.53;;;26.53;85.47
19884;BME280;10104;50.732;10.174;2023-08-20T08:12:07;98468.44;;;26.67;85.66
19884;BME280;10104;50.732;10.174;2023-08-20T08:14:47;98468.41;;;26.77;84.45
19884;BME280;10104;50.732;10.174;2023-08-20T08:17:28;98467.78;;;27.01;84.20
19884;BME280;10104;50.732;10.174;2023-08-20T08:20:13;98470.00;;;26.93;82.67
19884;BME280;10104;50.732;10.174;2023-08-20T08:23:00;98461.50;;;27.05;81.24
19884;BME280;10104;50.732;10.174;2023-08-20T08:25:41;98466.22;;;27.33;80.29
19884;BME280;10104;50.732;10.174;2023-08-20T08:28:21;98462.13;;;27.75;79.69
19884;BME280;10104;50.732;10.174;2023-08-20T08:31:01;98466.31;;;28.25;76.84
19884;BME280;10104;50.732;10.174;2023-08-20T08:33:42;98470.25;;;28.14;76.02
19884;BME280;10104;50.732;10.174;2023-08-20T08:36:23;98452.44;;;28.45;75.79
19884;BME280;10104;50.732;10.174;2023-08-20T08:39:08;98451.34;;;28.46;74.43
19884;BME280;10104;50.732;10.174;2023-08-20T08:41:54;98453.91;;;28.38;74.68
19884;BME280;10104;50.732;10.174;2023-08-20T08:44:42;98459.50;;;28.46;75.34
19884;BME280;10104;50.732;10.174;2023-08-20T08:47:25;98454.41;;;28.40;75.97
19884;BME280;10104;50.732;10.174;2023-08-20T08:50:06;98460.66;;;28.40;73.76
19884;BME280;10104;50.732;10.174;2023-08-20T08:52:50;98461.72;;;28.21;75.17
19884;BME280;10104;50.732;10.174;2023-08-20T08:55:31;98460.19;;;28.33;74.80
19884;BME280;10104;50.732;10.174;2023-08-20T08:58:11;98453.16;;;28.32;74.95
19884;BME280;10104;50.732;10.174;2023-08-20T09:00:52;98452.50;;;28.16;77.11
19884;BME280;10104;50.732;10.174;2023-08-20T09:03:38;98446.75;;;28.18;77.42
19884;BME280;10104;50.732;10.174;2023-08-20T09:06:25;98443.53;;;28.11;79.14
19884;BME280;10104;50.732;10.174;2023-08-20T09:09:06;98441.53;;;28.22;78.69
19884;BME280;10104;50.732;10.174;2023-08-20T09:11:47;98439.19;;;28.10;77.39
19884;BME280;10104;50.732;10.174;2023-08-20T09:14:28;98440.44;;;27.94;78.20
19884;BME280;10104;50.732;10.174;2023-08-20T09:17:09;98446.41;;;27.96;78.13
19884;BME280;10104;50.732;10.174;2023-08-20T09:19:49;98437.78;;;27.89;79.38
19884;BME280;10104;50.732;10.174;2023-08-20T09:22:29;98438.88;;;27.88;80.27
19884;BME280;10104;50.732;10.174;2023-08-20T09:25:15;98436.09;;;27.93;79.11
19884;BME280;10104;50.732;10.174;2023-08-20T09:27:55;98437.88;;;28.02;80.80
19884;BME280;10104;50.732;10.174;2023-08-20T09:30:36;98438.13;;;28.06;79.23
19884;BME280;10104;50.732;10.174;2023-08-20T09:33:17;98441.09;;;28.09;79.09
19884;BME280;10104;50.732;10.174;2023-08-20T09:35:57;98443.41;;;28.26;78.64
19884;BME280;10104;50.732;10.174;2023-08-20T09:38:37;98448.75;;;28.36;78.62
19884;BME280;10104;50.732;10.174;2023-08-20T09:41:21;98443.22;;;28.41;77.96
19884;BME280;10104;50.732;10.174;2023-08-20T09:44:04;98434.81;;;28.62;76.50
19884;BME280;10104;50.732;10.174;2023-08-20T09:46:45;98439.66;;;28.65;78.88
19884;BME280;10104;50.732;10.174;2023-08-20T09:49:29;98447.19;;;28.96;76.95
19884;BME280;10104;50.732;10.174;2023-08-20T09:52:11;98442.28;;;29.36;74.75
19884;BME280;10104;50.732;10.174;2023-08-20T09:55:11;98438.66;;;29.92;72.87
19884;BME280;10104;50.732;10.174;2023-08-20T09:57:53;98446.25;;;30.08;70.44
19884;BME280;10104;50.732;10.174;2023-08-20T10:00:34;98443.97;;;30.29;73.86
19884;BME280;10104;50.732;10.174;2023-08-20T10:03:15;98450.66;;;30.23;69.79
19884;BME280;10104;50.732;10.174;2023-08-20T10:05:56;98445.19;;;30.23;68.67
19884;BME280;10104;50.732;10.174;2023-08-20T10:08:38;98437.41;;;30.30;70.94
19884;BME280;10104;50.732;10.174;2023-08-20T10:11:18;98442.03;;;30.43;68.80
19884;BME280;10104;50.732;10.174;2023-08-20T10:13:59;98444.91;;;30.52;68.15
19884;BME280;10104;50.732;10.174;2023-08-20T10:16:39;98443.97;;;30.70;66.98
19884;BME280;10104;50.732;10.174;2023-08-20T10:19:19;98439.59;;;30.97;67.09
19884;BME280;10104;50.732;10.174;2023-08-20T10:22:02;98433.97;;;31.29;64.55
19884;BME280;10104;50.732;10.174;2023-08-20T10:24:51;98427.16;;;31.49;64.05
19884;BME280;10104;50.732;10.174;2023-08-20T10:27:36;98438.09;;;31.62;66.18
19884;BME280;10104;50.732;10.174;2023-08-20T10:30:24;98432.28;;;31.86;63.09
19884;BME280;10104;50.732;10.174;2023-08-20T10:33:09;98429.16;;;31.79;60.78
19884;BME280;10104;50.732;10.174;2023-08-20T10:35:50;98417.72;;;32.08;61.85
19884;BME280;10104;50.732;10.174;2023-08-20T10:38:35;98421.78;;;32.50;60.35
19884;BME280;10104;50.732;10.174;2023-08-20T10:41:16;98415.13;;;32.99;57.15
19884;BME280;10104;50.732;10.174;2023-08-20T10:44:00;98419.81;;;32.99;56.84
19884;BME280;10104;50.732;10.174;2023-08-20T10:46:49;98421.28;;;33.05;57.09
19884;BME280;10104;50.732;10.174;2023-08-20T10:49:30;98419.34;;;33.57;55.09
19884;BME280;10104;50.732;10.174;2023-08-20T10:52:12;98422.91;;;33.40;56.98
19884;BME280;10104;50.732;10.174;2023-08-20T10:54:53;98422.44;;;33.29;55.31
19884;BME280;10104;50.732;10.174;2023-08-20T10:57:36;98413.84;;;33.05;55.42
19884;BME280;10104;50.732;10.174;2023-08-20T11:00:16;98419.00;;;32.98;55.28
19884;BME280;10104;50.732;10.174;2023-08-20T11:02:57;98405.75;;;32.83;55.57
19884;BME280;10104;50.732;10.174;2023-08-20T11:05:39;98413.91;;;32.57;57.01
19884;BME280;10104;50.732;10.174;2023-08-20T11:08:19;98413.06;;;32.48;57.23
19884;BME280;10104;50.732;10.174;2023-08-20T11:11:01;98415.84;;;32.57;60.07
19884;BME280;10104;50.732;10.174;2023-08-20T11:13:43;98408.94;;;32.68;55.37
19884;BME280;10104;50.732;10.174;2023-08-20T11:16:23;98405.56;;;32.79;54.16
19884;BME280;10104;50.732;10.174;2023-08-20T11:19:04;98410.94;;;33.02;53.83
19884;BME280;10104;50.732;10.174;2023-08-20T11:21:49;98407.06;;;33.46;53.12
19884;BME280;10104;50.732;10.174;2023-08-20T11:24:29;98405.94;;;33.55;49.69
19884;BME280;10104;50.732;10.174;2023-08-20T11:27:10;98407.38;;;33.53;53.80
19884;BME280;10104;50.732;10.174;2023-08-20T11:29:50;98410.16;;;33.18;53.84
19884;BME280;10104;50.732;10.174;2023-08-20T11:32:34;98405.28;;;33.15;54.06
19884;BME280;10104;50.732;10.174;2023-08-20T11:35:15;98406.78;;;33.30;53.04
19884;BME280;10104;50.732;10.174;2023-08-20T11:37:56;98396.44;;;33.44;52.29
19884;BME280;10104;50.732;10.174;2023-08-20T11:40:38;98395.75;;;33.47;55.75
19884;BME280;10104;50.732;10.174;2023-08-20T11:43:18;98397.38;;;33.05;56.34
19884;BME280;10104;50.732;10.174;2023-08-20T11:45:58;98399.94;;;32.93;54.97
19884;BME280;10104;50.732;10.174;2023-08-20T11:48:38;98403.34;;;32.99;56.98
19884;BME280;10104;50.732;10.174;2023-08-20T11:51:18;98397.69;;;33.04;54.92
19884;BME280;10104;50.732;10.174;2023-08-20T11:53:58;98401.25;;;32.96;53.15
19884;BME280;10104;50.732;10.174;2023-08-20T11:59:26;98401.63;;;33.20;54.07
19884;BME280;10104;50.732;10.174;2023-08-20T12:02:06;98395.28;;;33.37;52.97
19884;BME280;10104;50.732;10.174;2023-08-20T12:04:50;98393.34;;;33.54;53.50
19884;BME280;10104;50.732;10.174;2023-08-20T12:07:31;98397.97;;;33.88;51.56
19884;BME280;10104;50.732;10.174;2023-08-20T12:10:21;98400.16;;;34.12;53.06
19884;BME280;10104;50.732;10.174;2023-08-20T12:13:02;98399.50;;;34.24;52.23
19884;BME280;10104;50.732;10.174;2023-08-20T12:15:43;98393.94;;;34.32;52.20
19884;BME280;10104;50.732;10.174;2023-08-20T12:18:23;98393.75;;;34.37;51.17
19884;BME280;10104;50.732;10.174;2023-08-20T12:21:03;98385.28;;;34.80;50.57
19884;BME280;10104;50.732;10.174;2023-08-20T12:23:43;98379.97;;;34.96;48.06
19884;BME280;10104;50.732;10.174;2023-08-20T12:26:24;98383.94;;;35.61;46.72
19884;BME280;10104;50.732;10.174;2023-08-20T12:29:04;98387.25;;;35.87;46.69
19884;BME280;10104;50.732;10.174;2023-08-20T12:31:44;98384.19;;;36.49;43.76
19884;BME280;10104;50.732;10.174;2023-08-20T12:34:24;98380.13;;;37.36;43.00
19884;BME280;10104;50.732;10.174;2023-08-20T12:37:05;98379.47;;;37.82;41.33
19884;BME280;10104;50.732;10.174;2023-08-20T12:39:47;98384.47;;;38.39;41.59
19884;BME280;10104;50.732;10.174;2023-08-20T12:42:36;98387.50;;;38.66;39.73
19884;BME280;10104;50.732;10.174;2023-08-20T12:45:17;98381.75;;;39.09;38.79
19884;BME280;10104;50.732;10.174;2023-08-20T12:47:57;98361.31;;;39.98;36.40
19884;BME280;10104;50.732;10.174;2023-08-20T12:50:41;98359.69;;;40.20;35.64
19884;BME280;10104;50.732;10.174;2023-08-20T12:53:21;98353.97;;;40.85;34.92
19884;BME280;10104;50.732;10.174;2023-08-20T12:56:01;98365.41;;;41.76;32.68
19884;BME280;10104;50.732;10.174;2023-08-20T12:58:43;98353.91;;;42.80;32.62
19884;BME280;10104;50.732;10.174;2023-08-20T13:01:37;98355.44;;;43.64;31.91
19884;BME280;10104;50.732;10.174;2023-08-20T13:04:19;98359.91;;;42.86;31.43
19884;BME280;10104;50.732;10.174;2023-08-20T13:07:00;98361.31;;;43.31;32.14
19884;BME280;10104;50.732;10.174;2023-08-20T13:09:42;98349.81;;;42.63;31.08
19884;BME280;10104;50.732;10.174;2023-08-20T13:12:25;98346.06;;;43.10;31.12
19884;BME280;10104;50.732;10.174;2023-08-20T13:15:08;98341.09;;;43.51;30.56
19884;BME280;10104;50.732;10.174;2023-08-20T13:17:50;98345.00;;;41.65;31.78
19884;BME280;10104;50.732;10.174;2023-08-20T13:20:30;98337.38;;;40.92;34.68
19884;BME280;10104;50.732;10.174;2023-08-20T13:23:11;98336.97;;;41.56;32.33
19884;BME280;10104;50.732;10.174;2023-08-20T13:25:51;98336.13;;;42.37;32.37
19884;BME280;10104;50.732;10.174;2023-08-20T13:28:31;98341.66;;;42.99;32.58
19884;BME280;10104;50.732;10.174;2023-08-20T13:31:11;98347.72;;;43.15;31.80
19884;BME280;10104;50.732;10.174;2023-08-20T13:33:52;98343.94;;;43.76;31.67
19884;BME280;10104;50.732;10.174;2023-08-20T13:36:32;98340.75;;;42.22;32.83
19884;BME280;10104;50.732;10.174;2023-08-20T13:39:13;98336.94;;;41.53;33.58
19884;BME280;10104;50.732;10.174;2023-08-20T13:41:53;98339.38;;;41.58;33.97
19884;BME280;10104;50.732;10.174;2023-08-20T13:44:34;98338.63;;;42.02;33.45
19884;BME280;10104;50.732;10.174;2023-08-20T13:47:14;98340.66;;;42.08;33.09
19884;BME280;10104;50.732;10.174;2023-08-20T13:49:54;98333.47;;;42.65;32.88
19884;BME280;10104;50.732;10.174;2023-08-20T13:52:34;98332.06;;;42.89;32.93
19884;BME280;10104;50.732;10.174;2023-08-20T13:55:15;98325.34;;;42.32;32.54
19884;BME280;10104;50.732;10.174;2023-08-20T13:57:55;98334.47;;;42.98;32.57
19884;BME280;10104;50.732;10.174;2023-08-20T14:00:35;98330.13;;;43.00;32.09
19884;BME280;10104;50.732;10.174;2023-08-20T14:03:16;98338.81;;;42.88;31.05
19884;BME280;10104;50.732;10.174;2023-08-20T14:05:56;98330.59;;;43.16;31.21
19884;BME280;10104;50.732;10.174;2023-08-20T14:08:36;98330.25;;;42.56;31.35
19884;BME280;10104;50.732;10.174;2023-08-20T14:11:16;98325.22;;;42.76;31.64